Time;durP1;ratioP1;P1;durP2;ratioP2;P2;SDS_P1;SDS_P2;PMS_P1;PMS_P2;Temp;Humidity;BMP_temperature;BMP_pressure;BME280_temperature;BME280_humidity;BME280_pressure;Samples;Min_cycle;Max_cycle;Signal;HPM_P1;HPM_P2
2021/03/08 00:01:43;;;;;;;27.77;19.10;;;5.20;95.10;;;;;;4964854;28;20722;-90
2021/03/08 00:04:11;;;;;;;26.23;18.50;;;5.10;95.10;;;;;;4967752;28;20250;-88
2021/03/08 00:06:37;;;;;;;27.93;18.77;;;5.00;95.10;;;;;;4963202;28;20571;-89
2021/03/08 00:09:04;;;;;;;26.17;19.13;;;5.00;95.10;;;;;;4964313;28;20201;-89
2021/03/08 00:11:31;;;;;;;26.00;18.10;;;4.80;95.00;;;;;;4966604;28;20220;-89
2021/03/08 00:13:57;;;;;;;29.77;20.10;;;4.60;95.70;;;;;;4968264;28;20833;-89
2021/03/08 00:16:23;;;;;;;28.17;19.57;;;4.60;96.30;;;;;;4961507;28;20224;-89
2021/03/08 00:18:50;;;;;;;25.53;18.20;;;4.60;96.50;;;;;;4968150;28;20212;-89
2021/03/08 00:21:17;;;;;;;27.90;19.53;;;4.70;96.50;;;;;;4967164;28;20254;-90
2021/03/08 00:23:44;;;;;;;26.50;19.37;;;4.70;96.30;;;;;;4969795;28;20236;-88
2021/03/08 00:26:10;;;;;;;26.90;18.57;;;4.80;96.20;;;;;;4969433;28;20548;-88
2021/03/08 00:28:37;;;;;;;28.50;19.93;;;4.80;96.10;;;;;;4969482;28;20734;-89
2021/03/08 00:31:03;;;;;;;28.43;20.07;;;4.80;96.20;;;;;;4965733;28;20779;-89
2021/03/08 00:33:30;;;;;;;28.40;20.03;;;4.80;96.20;;;;;;4969894;28;20197;-89
2021/03/08 00:35:56;;;;;;;31.60;20.67;;;4.90;96.10;;;;;;4962418;28;20756;-89
2021/03/08 00:38:23;;;;;;;30.33;21.57;;;4.80;95.80;;;;;;4965346;28;20682;-89
2021/03/08 00:40:51;;;;;;;28.20;20.60;;;4.60;96.30;;;;;;4961915;28;20237;-88
2021/03/08 00:43:19;;;;;;;28.93;21.33;;;4.50;97.00;;;;;;4971655;28;20200;-89
2021/03/08 00:45:46;;;;;;;30.20;21.20;;;4.40;96.90;;;;;;4967028;28;20273;-88
2021/03/08 00:48:12;;;;;;;28.27;19.83;;;4.40;96.50;;;;;;4967461;28;20213;-89
2021/03/08 00:50:39;;;;;;;27.70;20.00;;;4.30;96.40;;;;;;4966362;28;20232;-88
2021/03/08 00:53:05;;;;;;;28.73;19.87;;;4.20;96.60;;;;;;4992634;28;20201;-89
2021/03/08 00:55:32;;;;;;;30.87;21.43;;;4.20;96.90;;;;;;4966893;28;20224;-90
2021/03/08 00:57:59;;;;;;;32.97;21.80;;;4.10;96.70;;;;;;4965415;28;20584;-88
2021/03/08 01:00:28;;;;;;;33.30;23.07;;;3.90;96.90;;;;;;4975582;28;20239;-88
2021/03/08 01:02:57;;;;;;;31.87;22.07;;;3.80;97.50;;;;;;4984882;28;20204;-88
2021/03/08 01:05:24;;;;;;;32.23;22.47;;;3.90;98.20;;;;;;5005218;28;20215;-91
2021/03/08 01:07:51;;;;;;;32.77;21.63;;;3.90;98.10;;;;;;4981771;28;20219;-88
2021/03/08 01:10:20;;;;;;;29.07;20.97;;;4.00;97.70;;;;;;4965281;28;20219;-87
2021/03/08 01:12:48;;;;;;;31.70;21.13;;;4.00;97.50;;;;;;4967504;28;20510;-88
2021/03/08 01:15:15;;;;;;;30.93;22.43;;;3.90;97.50;;;;;;4962156;28;20216;-89
2021/03/08 01:17:42;;;;;;;32.63;21.43;;;3.90;97.70;;;;;;4966142;28;20232;-88
2021/03/08 01:20:11;;;;;;;31.67;21.27;;;4.10;97.50;;;;;;4968422;28;20684;-88
2021/03/08 01:22:37;;;;;;;30.33;19.90;;;4.10;97.40;;;;;;4963581;28;20221;-88
2021/03/08 01:25:07;;;;;;;33.40;22.23;;;4.20;97.10;;;;;;4961618;28;20217;-87
2021/03/08 01:27:34;;;;;;;27.63;21.27;;;4.10;96.70;;;;;;4967151;28;20212;-88
2021/03/08 01:30:01;;;;;;;32.17;22.10;;;4.00;96.60;;;;;;4968488;28;20674;-88
2021/03/08 01:32:28;;;;;;;30.00;21.13;;;3.90;96.80;;;;;;4967032;28;20229;-89
2021/03/08 01:34:54;;;;;;;29.40;21.67;;;3.80;97.10;;;;;;4964929;28;20207;-89
2021/03/08 01:37:21;;;;;;;30.60;22.17;;;3.90;97.50;;;;;;4968045;28;20246;-88
2021/03/08 01:39:47;;;;;;;29.87;21.07;;;3.90;97.50;;;;;;4979988;28;20600;-88
2021/03/08 01:42:13;;;;;;;30.90;20.63;;;4.00;97.50;;;;;;4965534;28;20722;-89
2021/03/08 01:44:40;;;;;;;30.50;20.60;;;4.10;97.30;;;;;;4967790;28;20209;-88
2021/03/08 01:47:07;;;;;;;26.83;20.30;;;4.10;96.90;;;;;;4979915;28;20411;-89
2021/03/08 01:49:34;;;;;;;30.10;20.93;;;4.20;96.80;;;;;;4964541;28;20216;-89
2021/03/08 01:52:00;;;;;;;28.57;19.53;;;4.10;97.00;;;;;;4972480;28;20270;-88
2021/03/08 01:54:27;;;;;;;31.47;21.27;;;4.10;96.80;;;;;;4965699;28;20204;-88
2021/03/08 01:56:53;;;;;;;31.47;20.23;;;4.20;96.40;;;;;;4966922;28;20233;-88
2021/03/08 01:59:20;;;;;;;26.83;19.57;;;4.20;96.20;;;;;;4967547;28;20542;-89
2021/03/08 02:01:47;;;;;;;27.73;20.30;;;4.10;96.20;;;;;;4980314;28;20228;-88
2021/03/08 02:04:14;;;;;;;28.13;20.53;;;4.10;96.20;;;;;;4963339;28;20679;-88
2021/03/08 02:06:40;;;;;;;27.10;19.67;;;4.10;96.20;;;;;;4986879;28;20262;-88
2021/03/08 02:09:07;;;;;;;28.13;19.53;;;4.10;96.10;;;;;;4973983;28;20208;-88
2021/03/08 02:11:37;;;;;;;26.83;19.43;;;4.10;96.10;;;;;;4978830;28;20243;-87
2021/03/08 02:14:22;;;;;;;30.07;19.77;;;4.10;95.80;;;;;;4964674;28;20201;-88
2021/03/08 02:16:55;;;;;;;28.40;20.47;;;4.10;95.50;;;;;;4964512;28;20232;-88
2021/03/08 02:20:10;;;;;;;33.77;19.97;;;4.10;95.60;;;;;;4962732;28;20198;-87
2021/03/08 02:23:13;;;;;;;28.30;20.27;;;4.00;95.90;;;;;;4960746;28;20808;-88
2021/03/08 02:26:16;;;;;;;28.70;19.80;;;4.10;95.30;;;;;;4963294;28;20638;-88
2021/03/08 02:29:03;;;;;;;26.23;19.90;;;4.20;94.90;;;;;;4968999;28;20208;-88
2021/03/08 02:31:32;;;;;;;28.70;19.37;;;4.30;94.90;;;;;;4970397;28;20224;-89
2021/03/08 02:34:03;;;;;;;24.67;18.70;;;4.40;94.90;;;;;;4964538;28;20663;-88
2021/03/08 02:36:34;;;;;;;27.27;18.93;;;4.40;94.60;;;;;;4966194;28;20316;-88
2021/03/08 02:39:04;;;;;;;27.93;19.03;;;4.40;94.20;;;;;;4984112;28;20204;-89
2021/03/08 02:41:32;;;;;;;25.27;18.37;;;4.40;94.20;;;;;;4978091;28;20248;-88
2021/03/08 02:44:02;;;;;;;28.33;19.23;;;4.50;94.10;;;;;;4970427;28;20197;-88
2021/03/08 02:46:31;;;;;;;26.00;18.60;;;4.60;94.00;;;;;;4986513;28;20225;-88
2021/03/08 02:49:01;;;;;;;26.77;18.70;;;4.50;93.80;;;;;;4967077;28;20228;-88
2021/03/08 02:51:30;;;;;;;27.00;18.57;;;4.40;93.90;;;;;;4964716;28;20221;-88
2021/03/08 02:53:59;;;;;;;25.57;18.13;;;4.30;93.70;;;;;;4957458;28;20739;-88
2021/03/08 02:56:30;;;;;;;25.07;17.90;;;4.10;93.60;;;;;;4976333;28;20271;-90
2021/03/08 02:58:59;;;;;;;22.57;17.63;;;4.00;93.50;;;;;;4977934;28;20201;-88
2021/03/08 03:01:26;;;;;;;25.33;18.03;;;3.90;93.40;;;;;;4965627;28;20733;-88
2021/03/08 03:03:55;;;;;;;23.47;17.60;;;3.70;93.80;;;;;;4967793;28;20208;-90
2021/03/08 03:06:26;;;;;;;28.20;18.43;;;3.60;93.90;;;;;;4962640;28;20239;-88
2021/03/08 03:08:54;;;;;;;23.13;17.30;;;3.50;93.80;;;;;;4994100;28;20200;-89
2021/03/08 03:11:21;;;;;;;25.73;17.83;;;3.50;94.20;;;;;;4965650;28;20235;-88
2021/03/08 03:13:51;;;;;;;25.77;18.37;;;3.40;94.80;;;;;;4979136;28;20452;-88
2021/03/08 03:16:19;;;;;;;25.57;18.37;;;3.40;94.70;;;;;;4975377;28;20241;-88
2021/03/08 03:18:49;;;;;;;29.07;19.57;;;3.30;94.70;;;;;;4968995;28;20235;-90
2021/03/08 03:21:19;;;;;;;27.53;18.10;;;3.20;94.70;;;;;;4974331;28;20213;-89
2021/03/08 03:23:49;;;;;;;26.00;18.70;;;3.20;94.70;;;;;;4971463;28;20225;-88
2021/03/08 03:26:17;;;;;;;22.60;17.00;;;3.20;94.70;;;;;;4967329;28;20224;-88
2021/03/08 03:28:44;;;;;;;24.37;18.07;;;3.20;94.70;;;;;;4990876;28;20217;-90
2021/03/08 03:31:11;;;;;;;26.53;18.07;;;3.10;94.70;;;;;;4984120;28;20229;-87
2021/03/08 03:33:39;;;;;;;24.03;17.80;;;3.10;94.70;;;;;;4966127;28;20216;-88
2021/03/08 03:36:06;;;;;;;24.73;16.97;;;3.10;94.70;;;;;;4968046;28;20225;-89
2021/03/08 03:38:35;;;;;;;26.47;18.07;;;3.10;94.70;;;;;;4970031;28;20236;-88
2021/03/08 03:41:02;;;;;;;25.20;17.43;;;3.10;94.20;;;;;;4972375;28;20236;-86
2021/03/08 03:43:28;;;;;;;23.93;18.00;;;3.00;94.60;;;;;;4976393;28;20203;-88
2021/03/08 03:45:55;;;;;;;24.47;16.73;;;3.10;94.70;;;;;;4993836;28;20225;-88
2021/03/08 03:48:21;;;;;;;25.17;18.23;;;3.00;94.70;;;;;;4978720;28;20714;-86
2021/03/08 03:50:48;;;;;;;25.23;17.27;;;3.10;94.70;;;;;;4989805;28;20262;-87
2021/03/08 03:53:14;;;;;;;26.17;17.53;;;3.00;94.60;;;;;;4969853;28;20220;-89
2021/03/08 03:55:42;;;;;;;24.37;17.27;;;3.00;94.20;;;;;;4993056;28;20250;-88
2021/03/08 03:58:13;;;;;;;25.33;18.13;;;3.00;94.20;;;;;;4979350;28;20223;-88
2021/03/08 04:00:48;;;;;;;22.07;16.10;;;3.00;94.20;;;;;;4977779;28;20225;-87
2021/03/08 04:03:20;;;;;;;23.03;16.83;;;3.00;93.60;;;;;;4972584;28;20213;-88
2021/03/08 04:05:47;;;;;;;22.60;15.93;;;3.00;93.10;;;;;;4968835;28;20292;-88
2021/03/08 04:08:19;;;;;;;23.57;16.27;;;3.00;92.50;;;;;;4972326;28;20206;-88
2021/03/08 04:10:49;;;;;;;21.20;15.80;;;2.90;91.80;;;;;;4967658;28;20231;-87
2021/03/08 04:13:17;;;;;;;21.53;15.73;;;2.90;90.90;;;;;;4967148;28;20208;-87
2021/03/08 04:15:43;;;;;;;21.87;15.23;;;3.00;90.80;;;;;;4968951;28;20252;-88
2021/03/08 04:18:12;;;;;;;23.13;15.13;;;2.90;90.70;;;;;;4971152;28;20235;-87
2021/03/08 04:20:40;;;;;;;20.13;15.00;;;2.90;90.70;;;;;;4966997;28;20592;-87
2021/03/08 04:23:10;;;;;;;21.00;15.60;;;2.80;90.30;;;;;;4968319;28;20225;-90
2021/03/08 04:25:40;;;;;;;22.77;15.80;;;2.70;90.40;;;;;;4968432;28;20254;-87
2021/03/08 04:28:08;;;;;;;25.67;16.30;;;2.70;90.40;;;;;;4984162;28;20212;-88
2021/03/08 04:30:34;;;;;;;23.20;15.43;;;2.70;90.50;;;;;;4971879;28;20301;-88
2021/03/08 04:33:02;;;;;;;19.80;14.53;;;2.70;90.90;;;;;;4976162;28;20205;-88
2021/03/08 04:35:31;;;;;;;21.23;15.10;;;2.60;89.80;;;;;;4975330;28;20236;-87
2021/03/08 04:37:59;;;;;;;21.40;15.03;;;2.60;89.30;;;;;;4965702;28;20224;-88
2021/03/08 04:40:26;;;;;;;20.27;14.90;;;2.60;89.90;;;;;;4990295;28;20587;-88
2021/03/08 04:42:53;;;;;;;21.80;15.60;;;2.50;89.90;;;;;;4981442;28;20659;-88
2021/03/08 04:45:21;;;;;;;20.87;15.73;;;2.50;90.30;;;;;;4966894;28;20257;-88
2021/03/08 04:47:49;;;;;;;23.70;16.10;;;2.40;90.40;;;;;;4970219;28;20241;-87
2021/03/08 04:50:16;;;;;;;20.80;15.20;;;2.40;90.70;;;;;;4968933;28;20197;-88
2021/03/08 04:52:45;;;;;;;20.10;15.27;;;2.40;90.90;;;;;;4966492;28;20214;-87
2021/03/08 04:55:13;;;;;;;22.27;16.00;;;2.40;90.80;;;;;;4965597;28;20256;-88
2021/03/08 04:57:41;;;;;;;22.00;15.93;;;2.30;91.10;;;;;;4983133;28;20231;-88
2021/03/08 05:00:09;;;;;;;20.63;14.93;;;2.30;91.20;;;;;;4972746;28;20219;-88
2021/03/08 05:02:38;;;;;;;23.53;15.27;;;2.30;91.50;;;;;;4969629;28;20206;-88
2021/03/08 05:05:06;;;;;;;24.30;16.10;;;2.30;91.50;;;;;;4971761;28;20315;-87
2021/03/08 05:07:36;;;;;;;21.33;15.43;;;2.20;91.50;;;;;;4963789;28;20312;-88
2021/03/08 05:10:03;;;;;;;20.73;15.47;;;2.20;91.60;;;;;;4965254;28;20211;-86
2021/03/08 05:12:31;;;;;;;24.70;15.23;;;2.20;91.80;;;;;;4984191;28;20686;-86
2021/03/08 05:14:59;;;;;;;23.23;14.70;;;2.10;91.90;;;;;;4970661;28;20203;-85
2021/03/08 05:17:26;;;;;;;22.33;15.87;;;2.00;91.90;;;;;;4969747;28;20712;-86
2021/03/08 05:19:54;;;;;;;21.93;15.53;;;2.00;92.00;;;;;;4968773;28;20575;-86
2021/03/08 05:22:21;;;;;;;20.77;15.33;;;1.90;92.20;;;;;;4965897;28;20269;-85
2021/03/08 05:24:49;;;;;;;23.50;15.87;;;1.80;92.10;;;;;;4969391;28;20567;-86
2021/03/08 05:27:17;;;;;;;23.27;15.60;;;1.80;92.50;;;;;;4964877;28;20229;-85
2021/03/08 05:29:45;;;;;;;21.97;15.20;;;1.80;92.80;;;;;;4968297;28;20218;-86
2021/03/08 05:32:15;;;;;;;23.80;16.70;;;1.80;92.90;;;;;;4975457;28;20224;-86
2021/03/08 05:34:46;;;;;;;25.00;16.33;;;1.60;93.30;;;;;;4969098;28;20202;-85
2021/03/08 05:37:14;;;;;;;23.90;15.70;;;1.40;93.70;;;;;;4977653;28;20236;-85
2021/03/08 05:39:42;;;;;;;21.93;16.60;;;1.30;94.30;;;;;;4976121;28;20220;-87
2021/03/08 05:42:11;;;;;;;24.13;16.57;;;1.20;94.60;;;;;;4986920;28;20215;-86
2021/03/08 05:44:44;;;;;;;23.07;15.97;;;1.30;95.10;;;;;;4967168;28;20232;-85
2021/03/08 05:47:35;;;;;;;24.07;16.23;;;1.30;95.30;;;;;;4968962;28;20245;-84
2021/03/08 05:50:47;;;;;;;22.93;16.27;;;1.50;95.10;;;;;;4977242;28;20194;-84
2021/03/08 05:53:27;;;;;;;20.73;14.80;;;1.50;95.00;;;;;;4983884;28;20225;-86
2021/03/08 05:56:17;;;;;;;19.40;13.87;;;1.60;94.10;;;;;;4976695;28;20697;-86
2021/03/08 05:59:10;;;;;;;19.03;14.17;;;1.70;90.60;;;;;;4966465;28;20234;-86
2021/03/08 06:02:02;;;;;;;19.00;13.83;;;1.80;90.10;;;;;;4965817;28;20257;-87
2021/03/08 06:05:08;;;;;;;19.27;13.63;;;1.80;87.00;;;;;;4968594;28;20199;-86
2021/03/08 06:08:10;;;;;;;19.23;13.83;;;1.80;87.00;;;;;;4981336;28;20244;-87
2021/03/08 06:10:46;;;;;;;19.83;14.07;;;1.70;86.90;;;;;;4966423;28;20233;-86
2021/03/08 06:13:17;;;;;;;19.97;13.47;;;1.60;88.20;;;;;;4972720;28;20267;-86
2021/03/08 06:15:50;;;;;;;19.03;13.80;;;1.50;86.70;;;;;;4975376;28;20259;-86
2021/03/08 06:18:17;;;;;;;19.20;13.30;;;1.40;87.80;;;;;;4973830;28;20222;-86
2021/03/08 06:20:45;;;;;;;19.43;14.17;;;1.40;88.30;;;;;;4968953;28;20591;-86
2021/03/08 06:23:11;;;;;;;17.03;12.60;;;1.30;88.90;;;;;;4969361;28;20234;-88
2021/03/08 06:25:41;;;;;;;19.57;13.23;;;1.30;86.60;;;;;;4973473;28;20579;-85
2021/03/08 06:28:10;;;;;;;18.67;12.83;;;1.20;86.60;;;;;;4971086;28;20223;-87
2021/03/08 06:30:36;;;;;;;18.33;12.70;;;1.20;86.60;;;;;;4979667;28;20725;-86
2021/03/08 06:33:03;;;;;;;18.37;13.27;;;1.20;86.60;;;;;;4969832;28;20207;-86
2021/03/08 06:35:29;;;;;;;18.57;12.80;;;1.30;86.60;;;;;;4966707;28;20883;-86
2021/03/08 06:37:56;;;;;;;17.70;12.63;;;1.30;86.70;;;;;;4967584;28;20226;-86
2021/03/08 06:40:23;;;;;;;19.00;13.13;;;1.30;86.60;;;;;;5001647;28;20196;-85
2021/03/08 06:42:52;;;;;;;16.10;12.43;;;1.20;86.60;;;;;;4971453;28;20227;-86
2021/03/08 06:45:18;;;;;;;17.50;11.77;;;1.30;86.70;;;;;;4966295;28;20210;-87
2021/03/08 06:47:45;;;;;;;15.67;12.23;;;1.40;85.90;;;;;;4964381;28;20214;-86
2021/03/08 06:50:14;;;;;;;16.77;11.67;;;1.60;85.70;;;;;;4972843;28;20203;-86
2021/03/08 06:52:42;;;;;;;16.00;12.00;;;1.50;83.40;;;;;;4974586;28;20272;-87
2021/03/08 06:55:11;;;;;;;14.20;12.03;;;1.50;83.90;;;;;;4961089;28;20235;-87
2021/03/08 06:57:38;;;;;;;15.20;11.10;;;1.60;83.40;;;;;;4963309;28;20237;-88
2021/03/08 07:00:08;;;;;;;13.93;11.43;;;1.60;82.70;;;;;;4963245;28;20222;-86
2021/03/08 07:02:36;;;;;;;16.13;11.80;;;1.70;82.40;;;;;;4961942;28;20289;-87
2021/03/08 07:05:03;;;;;;;18.60;11.77;;;1.80;82.60;;;;;;4963412;28;20262;-85
2021/03/08 07:07:46;;;;;;;15.17;11.70;;;1.80;82.30;;;;;;4963652;28;20323;-87
2021/03/08 07:10:14;;;;;;;14.43;10.57;;;1.90;82.40;;;;;;4959244;28;20205;-89
2021/03/08 07:12:49;;;;;;;17.13;11.07;;;2.10;82.00;;;;;;4967050;28;20555;-88
2021/03/08 07:15:16;;;;;;;13.00;10.53;;;2.20;79.70;;;;;;4959983;28;20215;-86
2021/03/08 07:17:43;;;;;;;16.83;10.17;;;2.20;78.70;;;;;;4962165;28;20276;-84
2021/03/08 07:20:12;;;;;;;14.23;10.03;;;2.20;78.80;;;;;;4956272;28;20200;-84
2021/03/08 07:22:43;;;;;;;14.90;10.40;;;2.40;77.80;;;;;;4959859;28;20232;-84
2021/03/08 07:25:21;;;;;;;14.10;10.20;;;2.50;77.70;;;;;;4962410;28;20196;-87
2021/03/08 07:28:00;;;;;;;14.70;10.13;;;2.80;77.90;;;;;;4966028;28;20218;-89
2021/03/08 07:30:29;;;;;;;12.83;10.33;;;2.90;75.20;;;;;;4960480;28;20240;-89
2021/03/08 07:32:58;;;;;;;13.33;10.20;;;3.10;75.50;;;;;;4953979;28;20197;-88
2021/03/08 07:35:39;;;;;;;17.30;10.17;;;3.30;75.40;;;;;;4966772;28;20656;-88
2021/03/08 07:38:07;;;;;;;16.83;10.43;;;3.20;72.70;;;;;;4968162;28;20224;-92
2021/03/08 07:40:42;;;;;;;14.10;10.17;;;3.10;71.20;;;;;;4961215;28;20232;-87
2021/03/08 07:43:18;;;;;;;12.53;10.03;;;3.10;72.60;;;;;;4977837;28;20201;-90
2021/03/08 07:45:46;;;;;;;12.03;9.53;;;3.30;74.50;;;;;;4962597;28;20236;-87
2021/03/08 07:48:14;;;;;;;14.37;9.90;;;3.70;72.90;;;;;;4968470;28;20615;-87
2021/03/08 07:50:52;;;;;;;15.50;10.10;;;3.80;71.80;;;;;;4970809;28;20571;-87
2021/03/08 07:53:28;;;;;;;13.03;9.67;;;4.00;68.70;;;;;;4986100;28;20204;-86
2021/03/08 07:55:56;;;;;;;13.60;9.70;;;4.40;69.10;;;;;;4963463;28;20224;-89
2021/03/08 07:58:25;;;;;;;15.23;9.63;;;4.70;68.10;;;;;;4959577;28;20644;-88
2021/03/08 08:00:52;;;;;;;14.53;9.03;;;4.60;63.70;;;;;;4959625;28;20224;-85
2021/03/08 08:03:19;;;;;;;15.83;10.47;;;4.60;69.30;;;;;;4955138;28;20204;-88
2021/03/08 08:05:45;;;;;;;13.87;9.23;;;4.50;64.10;;;;;;4960847;28;20247;-88
2021/03/08 08:08:13;;;;;;;15.67;9.00;;;4.70;64.00;;;;;;4967868;28;20198;-86
2021/03/08 08:10:40;;;;;;;15.40;9.07;;;5.10;59.80;;;;;;4962021;28;20231;-87
2021/03/08 08:13:08;;;;;;;12.13;9.03;;;5.20;57.50;;;;;;4964794;28;20202;-87
2021/03/08 08:15:36;;;;;;;12.60;9.47;;;5.40;57.90;;;;;;4978220;28;20293;-91
2021/03/08 08:18:07;;;;;;;12.00;9.47;;;5.80;55.10;;;;;;4974987;28;20225;-90
2021/03/08 08:20:35;;;;;;;13.87;9.40;;;5.90;53.90;;;;;;4988652;28;20235;-89
2021/03/08 08:23:03;;;;;;;12.93;8.50;;;5.80;55.00;;;;;;4965421;28;20227;-88
2021/03/08 08:25:30;;;;;;;12.63;9.17;;;5.80;55.40;;;;;;4961087;28;20261;-88
2021/03/08 08:27:57;;;;;;;9.53;8.40;;;5.80;53.80;;;;;;4966275;28;20212;-88
2021/03/08 08:30:27;;;;;;;11.40;9.10;;;5.80;53.60;;;;;;4981155;28;20660;-89
2021/03/08 08:32:54;;;;;;;11.07;8.53;;;6.00;51.00;;;;;;4976359;28;20193;-87
2021/03/08 08:35:27;;;;;;;13.37;9.27;;;5.70;52.10;;;;;;4971397;28;20241;-88
2021/03/08 08:38:21;;;;;;;10.37;8.70;;;5.40;54.50;;;;;;4965719;28;20239;-87
2021/03/08 08:44:38;;;;;;;11.53;8.80;;;6.40;50.60;;;;;;4967646;28;20291;-90
2021/03/08 08:47:29;;;;;;;11.83;8.57;;;5.90;51.50;;;;;;4956624;28;20257;-88
2021/03/08 08:49:58;;;;;;;11.20;8.50;;;6.10;51.10;;;;;;4958947;29;20193;-88
2021/03/08 09:17:18;;;;;;;9.82;8.23;;;6.60;48.90;;;;;;4986977;28;20197;-88
2021/03/08 09:20:24;;;;;;;10.30;7.88;;;6.80;45.70;;;;;;4963064;29;20216;-88
2021/03/08 09:35:50;;;;;;;8.43;7.30;;;9.60;38.20;;;;;;5759309;22;20236;-89
2021/03/08 09:38:19;;;;;;;10.90;7.47;;;10.70;34.00;;;;;;5106684;28;20319;-90
2021/03/08 09:40:52;;;;;;;12.75;8.27;;;10.80;33.30;;;;;;5095509;28;20252;-90
2021/03/08 09:43:23;;;;;;;9.27;8.07;;;11.20;34.60;;;;;;5096408;28;20201;-90
2021/03/08 09:45:57;;;;;;;9.00;7.95;;;10.40;35.50;;;;;;5087011;28;20226;-88
2021/03/08 09:48:24;;;;;;;9.48;7.85;;;10.90;35.10;;;;;;5087836;28;20197;-90
2021/03/08 09:50:51;;;;;;;8.93;8.02;;;11.10;34.00;;;;;;5091157;28;20236;-89
2021/03/08 09:53:20;;;;;;;9.77;8.35;;;10.70;33.10;;;;;;5086644;28;20198;-91
2021/03/08 09:55:46;;;;;;;8.55;7.60;;;9.80;36.80;;;;;;5098634;28;20992;-89
2021/03/08 09:58:15;;;;;;;11.63;8.32;;;9.50;38.00;;;;;;5092441;28;20219;-89
2021/03/08 10:00:42;;;;;;;12.65;8.77;;;9.50;38.30;;;;;;5096900;28;20234;-90
2021/03/08 10:03:10;;;;;;;12.20;8.45;;;9.00;41.20;;;;;;5098466;28;20267;-88
2021/03/08 10:06:03;;;;;;;9.45;7.97;;;9.10;40.00;;;;;;5100738;28;20231;-87
2021/03/08 10:08:58;;;;;;;10.02;8.20;;;8.90;40.70;;;;;;5103190;28;20199;-87
2021/03/08 10:11:47;;;;;;;10.23;8.38;;;9.30;39.50;;;;;;5108340;28;20231;-86
2021/03/08 10:14:24;;;;;;;8.98;7.97;;;9.30;40.80;;;;;;5095203;28;20228;-87
2021/03/08 10:16:50;;;;;;;11.77;7.93;;;9.00;39.90;;;;;;5095312;28;20232;-87
2021/03/08 10:19:20;;;;;;;12.68;8.98;;;8.90;40.70;;;;;;5102141;28;20265;-87
2021/03/08 10:22:32;;;;;;;11.38;8.35;;;8.90;42.50;;;;;;5101818;28;20310;-86
2021/03/08 10:25:34;;;;;;;14.70;8.00;;;9.80;40.10;;;;;;5074911;28;20217;-87
2021/03/08 10:28:43;;;;;;;9.15;8.20;;;10.00;35.40;;;;;;5090221;28;20240;-86
2021/03/08 10:31:38;;;;;;;9.82;8.32;;;9.80;36.30;;;;;;5084109;28;20224;-87
2021/03/08 10:34:10;;;;;;;14.85;9.50;;;9.00;38.70;;;;;;5064676;28;20201;-87
2021/03/08 10:36:38;;;;;;;9.77;8.07;;;9.50;38.00;;;;;;5060297;28;20766;-87
2021/03/08 10:42:27;;;;;;;9.63;8.05;;;9.70;40.30;;;;;;5074140;28;20224;-88
2021/03/08 10:44:55;;;;;;;11.52;8.60;;;10.80;33.80;;;;;;5075933;28;20212;-88
2021/03/08 10:47:23;;;;;;;11.20;9.10;;;10.80;35.40;;;;;;5064814;28;20225;-89
2021/03/08 10:49:52;;;;;;;9.60;8.60;;;11.60;35.30;;;;;;5070494;28;20587;-88
2021/03/08 10:52:20;;;;;;;10.48;9.18;;;12.30;34.20;;;;;;5074821;28;20569;-89
2021/03/08 10:55:08;;;;;;;10.88;9.23;;;13.00;33.10;;;;;;5076508;28;20205;-89
2021/03/08 11:01:09;;;;;;;12.23;9.27;;;12.70;31.30;;;;;;5078980;28;20315;-86
2021/03/08 11:03:39;;;;;;;12.63;8.82;;;11.90;34.30;;;;;;5072424;28;20193;-89
2021/03/08 11:06:09;;;;;;;10.45;9.25;;;11.20;34.00;;;;;;5072803;28;20233;-90
2021/03/08 11:09:04;;;;;;;11.50;8.45;;;11.50;33.60;;;;;;5067742;28;20197;-90
2021/03/08 11:11:32;;;;;;;9.35;7.70;;;11.90;32.40;;;;;;5065216;28;20235;-89
2021/03/08 11:14:09;;;;;;;10.02;8.43;;;11.70;30.90;;;;;;5073102;28;20193;-90
2021/03/08 11:17:11;;;;;;;9.82;8.45;;;10.90;32.60;;;;;;5073164;28;20229;-88
2021/03/08 11:23:25;;;;;;;12.30;8.55;;;9.50;34.80;;;;;;5082023;28;20216;-87
2021/03/08 11:26:12;;;;;;;10.73;8.65;;;8.70;38.10;;;;;;5064912;28;20251;-89
2021/03/08 11:32:00;;;;;;;11.18;8.75;;;8.50;38.00;;;;;;5075025;28;20266;-89
2021/03/08 11:37:51;;;;;;;10.23;8.25;;;8.90;37.60;;;;;;5066081;28;20262;-88
2021/03/08 11:47:57;;;;;;;13.88;8.50;;;9.50;38.30;;;;;;5053123;28;20277;-88
2021/03/08 11:50:33;;;;;;;12.00;8.85;;;9.50;37.80;;;;;;5071141;28;20227;-91
2021/03/08 11:57:08;;;;;;;10.85;8.38;;;9.90;35.10;;;;;;5052907;28;20197;-91
2021/03/08 12:00:10;;;;;;;9.77;8.38;;;9.20;36.80;;;;;;5078516;28;20212;-89
2021/03/08 12:05:59;;;;;;;10.68;8.30;;;9.60;39.00;;;;;;5089660;28;20195;-88
2021/03/08 12:08:26;;;;;;;13.27;8.57;;;9.60;39.60;;;;;;5063180;28;20216;-89
2021/03/08 12:10:53;;;;;;;10.40;9.20;;;9.40;38.30;;;;;;5067402;28;20758;-90
2021/03/08 12:20:41;;;;;;;11.93;9.13;;;8.70;38.70;;;;;;5059606;28;20177;-90
2021/03/08 12:25:46;;;;;;;12.38;9.02;;;8.30;41.80;;;;;;5164327;22;20226;-89
2021/03/08 12:28:14;;;;;;;13.85;9.00;;;8.20;39.90;;;;;;4985307;28;20193;-90
2021/03/08 12:30:40;;;;;;;13.63;9.23;;;8.00;40.70;;;;;;4983298;28;20231;-90
2021/03/08 12:33:07;;;;;;;13.07;10.10;;;7.40;42.50;;;;;;5000086;28;20317;-89
2021/03/08 12:35:33;;;;;;;13.17;9.47;;;6.80;43.60;;;;;;4989481;28;20224;-90
2021/03/08 12:38:01;;;;;;;12.90;9.23;;;7.10;43.40;;;;;;4984948;28;20251;-87
2021/03/08 12:40:27;;;;;;;13.27;9.43;;;7.30;42.20;;;;;;4987551;28;20200;-91
2021/03/08 12:42:53;;;;;;;11.17;9.47;;;7.40;42.40;;;;;;4984181;28;20681;-88
2021/03/08 12:45:20;;;;;;;10.20;9.10;;;7.60;44.00;;;;;;4980402;28;20645;-87
2021/03/08 12:47:46;;;;;;;11.10;8.63;;;7.70;42.30;;;;;;4980780;28;20197;-87
2021/03/08 12:50:14;;;;;;;13.00;9.03;;;7.80;40.80;;;;;;4981101;28;20294;-89
2021/03/08 12:52:40;;;;;;;10.97;8.57;;;7.50;40.60;;;;;;4984372;28;20209;-89
2021/03/08 12:55:09;;;;;;;9.60;8.60;;;8.00;40.50;;;;;;4980622;28;20295;-88
2021/03/08 12:57:36;;;;;;;10.10;8.73;;;8.10;38.70;;;;;;4980454;28;20598;-88
2021/03/08 13:00:03;;;;;;;13.20;9.10;;;7.80;40.00;;;;;;4982588;28;20208;-88
2021/03/08 13:02:30;;;;;;;9.80;8.33;;;8.00;39.40;;;;;;4979165;28;20245;-89
2021/03/08 13:04:56;;;;;;;12.27;8.43;;;8.00;38.80;;;;;;4981517;28;20204;-90
2021/03/08 13:07:23;;;;;;;13.30;8.70;;;7.90;39.00;;;;;;4984185;28;20232;-88
2021/03/08 13:09:49;;;;;;;10.03;8.43;;;7.80;39.30;;;;;;4983334;28;20210;-91
2021/03/08 13:12:16;;;;;;;13.17;8.80;;;7.80;40.60;;;;;;4980108;28;20315;-89
2021/03/08 13:14:45;;;;;;;9.40;8.40;;;7.70;40.00;;;;;;4981822;28;20210;-91
2021/03/08 13:20:34;;;;;;;11.80;8.60;;;7.50;39.90;;;;;;4992318;28;20323;-90
2021/03/08 13:23:00;;;;;;;10.07;8.13;;;7.50;40.10;;;;;;4988138;28;20228;-91
2021/03/08 13:26:18;;;;;;;15.80;8.73;;;7.70;40.50;;;;;;5063644;28;20635;-91
2021/03/08 13:31:26;;;;;;;10.43;8.70;;;8.20;37.60;;;;;;5009666;28;20200;-94
2021/03/08 13:33:53;;;;;;;10.87;7.77;;;8.30;39.30;;;;;;4996679;28;20200;-94
2021/03/08 13:39:24;;;;;;;9.43;7.78;;;8.30;38.30;;;;;;4956106;29;20225;-96
2021/03/08 13:45:00;;;;;;;10.93;7.80;;;8.10;38.20;;;;;;4993841;28;20757;-90
2021/03/08 13:47:26;;;;;;;13.18;8.07;;;7.90;39.40;;;;;;4952571;28;20670;-91
2021/03/08 13:49:53;;;;;;;11.03;7.90;;;7.80;39.30;;;;;;4991713;28;20259;-88
2021/03/08 13:52:19;;;;;;;12.40;8.53;;;7.90;41.30;;;;;;5045750;28;20311;-90
2021/03/08 13:54:46;;;;;;;9.63;7.80;;;7.90;39.80;;;;;;5050456;28;20212;-90
2021/03/08 13:57:12;;;;;;;10.03;7.77;;;7.90;39.90;;;;;;4993687;28;20224;-91
2021/03/08 13:59:38;;;;;;;10.23;7.73;;;7.80;39.60;;;;;;4980961;28;20258;-90
2021/03/08 14:02:06;;;;;;;11.07;7.85;;;7.90;37.80;;;;;;4992064;28;20328;-90
2021/03/08 14:04:32;;;;;;;9.30;7.80;;;7.70;38.20;;;;;;4983864;28;20200;-90
2021/03/08 14:06:59;;;;;;;12.20;7.63;;;7.50;37.80;;;;;;4992904;28;20273;-88
2021/03/08 14:09:25;;;;;;;11.35;7.40;;;7.50;38.60;;;;;;4986004;28;20557;-91
2021/03/08 14:11:52;;;;;;;10.30;7.60;;;7.50;37.40;;;;;;4974455;28;20721;-90
2021/03/08 14:14:18;;;;;;;11.47;8.23;;;7.60;37.80;;;;;;4977241;28;20217;-90
2021/03/08 14:16:46;;;;;;;8.40;7.60;;;7.40;37.50;;;;;;4983270;28;20229;-91
2021/03/08 14:19:14;;;;;;;11.60;7.97;;;7.30;37.70;;;;;;4975501;28;20228;-93
2021/03/08 14:21:40;;;;;;;8.53;7.53;;;7.30;38.20;;;;;;4975899;28;20250;-90
2021/03/08 14:24:07;;;;;;;8.57;7.40;;;7.50;37.00;;;;;;4979910;28;20239;-92
2021/03/08 14:26:35;;;;;;;11.80;8.10;;;7.60;36.60;;;;;;4977028;28;20303;-92
2021/03/08 14:29:02;;;;;;;9.57;7.80;;;7.50;36.90;;;;;;4984070;28;20215;-93
2021/03/08 14:31:28;;;;;;;10.10;7.17;;;7.30;37.40;;;;;;4982422;28;20228;-93
2021/03/08 14:33:55;;;;;;;7.90;6.80;;;7.30;37.20;;;;;;4992337;28;20271;-92
2021/03/08 14:36:22;;;;;;;9.07;6.73;;;7.20;36.80;;;;;;4986272;28;20572;-92